MMHO/HMO METAR and TAF weather

Enter ICAO airport designator
Station Type Date Time Source
MMHO METAR 2019/09/20 09:40 UTC NOAA

MMHO 200940Z 12003KT 10SM SKC 27/23 A2979 RMK HZY


Station Type Date Time Source
MMHO Decoded METAR 2019/09/20 09:40 UTC NOAA

Hermosillo, Son., Mexico (MMHO) 29-04N 110-57W
Sep 20, 2019 - 05:40 AM EDT / 2019.09.20 0940 UTC
Wind: from the ESE (120 degrees) at 3 MPH (3 KT):0
Visibility: 10 mile(s):0
Sky conditions: clear
Temperature: 80 F (27 C)
Dew Point: 73 F (23 C)
Relative Humidity: 78%
Pressure (altimeter): 29.79 in. Hg (1008 hPa)
ob: MMHO 200940Z 12003KT 10SM SKC 27/23 A2979 RMK HZY
cycle: 9

Station Type Date Time Source
MMHO TAF 2019/09/20 06:58 UTC NOAA

TAF MMHO 200452Z 2006/2106 00000KT P6SM SKC
FM201800 24010KT P6SM SCT030
FM210400 24005KT P6SM SKC

Example: see airport list